sensor_id;sensor_type;location;lat;lon;timestamp;P1;durP1;ratioP1;P2;durP2;ratioP2
51124;SDS011;37163;55.556;39.108;2023-09-18T00:01:27;0.25;;;0.13;;
51124;SDS011;37163;55.556;39.108;2023-09-18T00:03:56;0.25;;;0.00;;
51124;SDS011;37163;55.556;39.108;2023-09-18T00:06:25;0.10;;;0.10;;
51124;SDS011;37163;55.556;39.108;2023-09-18T00:08:55;0.10;;;0.10;;
51124;SDS011;37163;55.556;39.108;2023-09-18T00:11:24;0.10;;;0.05;;
51124;SDS011;37163;55.556;39.108;2023-09-18T00:13:54;0.10;;;0.10;;
51124;SDS011;37163;55.556;39.108;2023-09-18T00:16:23;0.03;;;0.03;;
51124;SDS011;37163;55.556;39.108;2023-09-18T00:18:52;0.35;;;0.20;;
51124;SDS011;37163;55.556;39.108;2023-09-18T00:21:21;0.10;;;0.10;;
51124;SDS011;37163;55.556;39.108;2023-09-18T00:23:52;0.20;;;0.20;;
51124;SDS011;37163;55.556;39.108;2023-09-18T00:26:24;0.20;;;0.10;;
51124;SDS011;37163;55.556;39.108;2023-09-18T00:28:57;0.10;;;0.10;;
51124;SDS011;37163;55.556;39.108;2023-09-18T00:31:26;0.00;;;0.00;;
51124;SDS011;37163;55.556;39.108;2023-09-18T00:33:57;0.10;;;0.10;;
51124;SDS011;37163;55.556;39.108;2023-09-18T00:36:26;0.13;;;0.13;;
51124;SDS011;37163;55.556;39.108;2023-09-18T00:38:56;0.15;;;0.10;;
51124;SDS011;37163;55.556;39.108;2023-09-18T00:41:25;0.00;;;0.00;;
51124;SDS011;37163;55.556;39.108;2023-09-18T00:43:54;0.00;;;0.00;;
51124;SDS011;37163;55.556;39.108;2023-09-18T00:46:25;0.30;;;0.10;;
51124;SDS011;37163;55.556;39.108;2023-09-18T00:48:54;0.13;;;0.08;;
51124;SDS011;37163;55.556;39.108;2023-09-18T00:51:23;0.10;;;0.10;;
51124;SDS011;37163;55.556;39.108;2023-09-18T00:53:52;0.00;;;0.00;;
51124;SDS011;37163;55.556;39.108;2023-09-18T00:56:21;0.40;;;0.00;;
51124;SDS011;37163;55.556;39.108;2023-09-18T00:58:51;0.00;;;0.00;;
51124;SDS011;37163;55.556;39.108;2023-09-18T01:01:21;0.20;;;0.10;;
51124;SDS011;37163;55.556;39.108;2023-09-18T01:03:50;0.20;;;0.10;;
51124;SDS011;37163;55.556;39.108;2023-09-18T01:06:20;0.28;;;0.10;;
51124;SDS011;37163;55.556;39.108;2023-09-18T01:08:56;0.00;;;0.00;;
51124;SDS011;37163;55.556;39.108;2023-09-18T01:17:06;0.32;;;0.20;;
51124;SDS011;37163;55.556;39.108;2023-09-18T01:19:43;0.00;;;0.00;;
51124;SDS011;37163;55.556;39.108;2023-09-18T01:22:14;0.13;;;0.10;;
51124;SDS011;37163;55.556;39.108;2023-09-18T01:24:44;0.73;;;0.15;;
51124;SDS011;37163;55.556;39.108;2023-09-18T01:27:14;0.55;;;0.10;;
51124;SDS011;37163;55.556;39.108;2023-09-18T01:29:44;0.03;;;0.03;;
51124;SDS011;37163;55.556;39.108;2023-09-18T01:32:15;0.10;;;0.10;;
51124;SDS011;37163;55.556;39.108;2023-09-18T01:34:47;0.10;;;0.10;;
51124;SDS011;37163;55.556;39.108;2023-09-18T01:37:22;0.17;;;0.10;;
51124;SDS011;37163;55.556;39.108;2023-09-18T01:40:00;0.25;;;0.08;;
51124;SDS011;37163;55.556;39.108;2023-09-18T01:42:32;0.10;;;0.00;;
51124;SDS011;37163;55.556;39.108;2023-09-18T01:45:02;0.00;;;0.00;;
51124;SDS011;37163;55.556;39.108;2023-09-18T01:47:32;0.10;;;0.10;;
51124;SDS011;37163;55.556;39.108;2023-09-18T01:50:02;0.40;;;0.15;;
51124;SDS011;37163;55.556;39.108;2023-09-18T01:52:32;0.70;;;0.50;;
51124;SDS011;37163;55.556;39.108;2023-09-18T01:55:01;0.10;;;0.10;;
51124;SDS011;37163;55.556;39.108;2023-09-18T01:57:31;0.47;;;0.20;;
51124;SDS011;37163;55.556;39.108;2023-09-18T02:00:02;0.17;;;0.15;;
51124;SDS011;37163;55.556;39.108;2023-09-18T02:02:38;0.25;;;0.20;;
51124;SDS011;37163;55.556;39.108;2023-09-18T02:05:07;0.38;;;0.17;;
51124;SDS011;37163;55.556;39.108;2023-09-18T02:07:36;0.22;;;0.05;;
51124;SDS011;37163;55.556;39.108;2023-09-18T02:10:05;0.35;;;0.10;;
51124;SDS011;37163;55.556;39.108;2023-09-18T02:12:34;0.00;;;0.00;;
51124;SDS011;37163;55.556;39.108;2023-09-18T02:15:03;0.30;;;0.10;;
51124;SDS011;37163;55.556;39.108;2023-09-18T02:17:32;0.93;;;0.03;;
51124;SDS011;37163;55.556;39.108;2023-09-18T02:20:02;0.10;;;0.10;;
51124;SDS011;37163;55.556;39.108;2023-09-18T02:22:40;0.20;;;0.10;;
51124;SDS011;37163;55.556;39.108;2023-09-18T02:25:12;0.30;;;0.10;;
51124;SDS011;37163;55.556;39.108;2023-09-18T02:27:41;0.10;;;0.10;;
51124;SDS011;37163;55.556;39.108;2023-09-18T02:30:11;1.02;;;0.20;;
51124;SDS011;37163;55.556;39.108;2023-09-18T02:32:40;0.10;;;0.05;;
51124;SDS011;37163;55.556;39.108;2023-09-18T02:35:09;0.10;;;0.10;;
51124;SDS011;37163;55.556;39.108;2023-09-18T02:37:39;0.20;;;0.20;;
51124;SDS011;37163;55.556;39.108;2023-09-18T02:40:11;0.17;;;0.05;;
51124;SDS011;37163;55.556;39.108;2023-09-18T02:42:41;0.15;;;0.10;;
51124;SDS011;37163;55.556;39.108;2023-09-18T02:45:10;0.10;;;0.08;;
51124;SDS011;37163;55.556;39.108;2023-09-18T02:47:39;0.30;;;0.10;;
51124;SDS011;37163;55.556;39.108;2023-09-18T02:50:09;0.43;;;0.20;;
51124;SDS011;37163;55.556;39.108;2023-09-18T02:52:38;0.10;;;0.00;;
51124;SDS011;37163;55.556;39.108;2023-09-18T02:55:07;2.80;;;0.45;;
51124;SDS011;37163;55.556;39.108;2023-09-18T02:57:36;0.32;;;0.15;;
51124;SDS011;37163;55.556;39.108;2023-09-18T03:00:06;1.15;;;0.40;;
51124;SDS011;37163;55.556;39.108;2023-09-18T03:02:35;0.88;;;0.45;;
51124;SDS011;37163;55.556;39.108;2023-09-18T03:05:05;0.35;;;0.20;;
51124;SDS011;37163;55.556;39.108;2023-09-18T03:07:34;0.52;;;0.08;;
51124;SDS011;37163;55.556;39.108;2023-09-18T03:10:04;0.30;;;0.10;;
51124;SDS011;37163;55.556;39.108;2023-09-18T03:12:40;0.30;;;0.22;;
51124;SDS011;37163;55.556;39.108;2023-09-18T03:15:13;0.22;;;0.17;;
51124;SDS011;37163;55.556;39.108;2023-09-18T03:17:42;0.20;;;0.15;;
51124;SDS011;37163;55.556;39.108;2023-09-18T03:20:11;0.43;;;0.20;;
51124;SDS011;37163;55.556;39.108;2023-09-18T03:22:40;0.10;;;0.10;;
51124;SDS011;37163;55.556;39.108;2023-09-18T03:25:10;0.10;;;0.10;;
51124;SDS011;37163;55.556;39.108;2023-09-18T03:27:39;0.55;;;0.10;;
51124;SDS011;37163;55.556;39.108;2023-09-18T03:30:08;0.38;;;0.10;;
51124;SDS011;37163;55.556;39.108;2023-09-18T03:32:43;0.10;;;0.10;;
51124;SDS011;37163;55.556;39.108;2023-09-18T03:35:14;0.13;;;0.13;;
51124;SDS011;37163;55.556;39.108;2023-09-18T03:37:50;0.20;;;0.20;;
51124;SDS011;37163;55.556;39.108;2023-09-18T03:40:21;0.47;;;0.35;;
51124;SDS011;37163;55.556;39.108;2023-09-18T03:42:50;0.38;;;0.38;;
51124;SDS011;37163;55.556;39.108;2023-09-18T03:45:19;0.13;;;0.10;;
51124;SDS011;37163;55.556;39.108;2023-09-18T03:47:49;0.52;;;0.40;;
51124;SDS011;37163;55.556;39.108;2023-09-18T03:50:18;0.43;;;0.28;;
51124;SDS011;37163;55.556;39.108;2023-09-18T03:52:47;0.08;;;0.08;;
51124;SDS011;37163;55.556;39.108;2023-09-18T03:55:16;0.40;;;0.10;;
51124;SDS011;37163;55.556;39.108;2023-09-18T03:57:45;0.47;;;0.10;;
51124;SDS011;37163;55.556;39.108;2023-09-18T04:00:15;0.38;;;0.30;;
51124;SDS011;37163;55.556;39.108;2023-09-18T04:02:44;0.40;;;0.40;;
51124;SDS011;37163;55.556;39.108;2023-09-18T04:05:13;0.63;;;0.20;;
51124;SDS011;37163;55.556;39.108;2023-09-18T04:07:42;0.30;;;0.03;;
51124;SDS011;37163;55.556;39.108;2023-09-18T04:10:12;0.30;;;0.20;;
51124;SDS011;37163;55.556;39.108;2023-09-18T04:12:49;0.52;;;0.30;;
51124;SDS011;37163;55.556;39.108;2023-09-18T04:15:18;0.20;;;0.20;;
51124;SDS011;37163;55.556;39.108;2023-09-18T04:17:48;0.28;;;0.20;;
51124;SDS011;37163;55.556;39.108;2023-09-18T04:20:17;0.65;;;0.30;;
51124;SDS011;37163;55.556;39.108;2023-09-18T04:22:47;0.52;;;0.20;;
51124;SDS011;37163;55.556;39.108;2023-09-18T04:25:36;0.60;;;0.30;;
51124;SDS011;37163;55.556;39.108;2023-09-18T04:28:05;0.38;;;0.30;;
51124;SDS011;37163;55.556;39.108;2023-09-18T04:30:35;0.52;;;0.30;;
51124;SDS011;37163;55.556;39.108;2023-09-18T04:33:05;0.40;;;0.20;;
51124;SDS011;37163;55.556;39.108;2023-09-18T04:35:34;0.20;;;0.10;;
51124;SDS011;37163;55.556;39.108;2023-09-18T04:38:07;0.28;;;0.20;;
51124;SDS011;37163;55.556;39.108;2023-09-18T04:40:37;0.47;;;0.25;;
51124;SDS011;37163;55.556;39.108;2023-09-18T04:43:06;0.57;;;0.20;;
51124;SDS011;37163;55.556;39.108;2023-09-18T04:45:36;0.40;;;0.20;;
51124;SDS011;37163;55.556;39.108;2023-09-18T04:48:06;0.65;;;0.45;;
51124;SDS011;37163;55.556;39.108;2023-09-18T04:50:36;1.00;;;0.60;;
51124;SDS011;37163;55.556;39.108;2023-09-18T04:53:06;0.88;;;0.47;;
51124;SDS011;37163;55.556;39.108;2023-09-18T04:55:35;1.05;;;0.60;;
51124;SDS011;37163;55.556;39.108;2023-09-18T04:58:05;0.40;;;0.28;;
51124;SDS011;37163;55.556;39.108;2023-09-18T05:00:34;0.52;;;0.40;;
51124;SDS011;37163;55.556;39.108;2023-09-18T05:03:03;1.30;;;0.60;;
51124;SDS011;37163;55.556;39.108;2023-09-18T05:05:34;0.90;;;0.50;;
51124;SDS011;37163;55.556;39.108;2023-09-18T05:08:05;0.70;;;0.45;;
51124;SDS011;37163;55.556;39.108;2023-09-18T05:10:35;0.20;;;0.20;;
51124;SDS011;37163;55.556;39.108;2023-09-18T05:13:04;0.90;;;0.38;;
51124;SDS011;37163;55.556;39.108;2023-09-18T05:15:34;0.90;;;0.40;;
51124;SDS011;37163;55.556;39.108;2023-09-18T05:18:04;0.25;;;0.25;;
51124;SDS011;37163;55.556;39.108;2023-09-18T05:20:33;1.52;;;0.60;;
51124;SDS011;37163;55.556;39.108;2023-09-18T05:23:03;0.82;;;0.52;;
51124;SDS011;37163;55.556;39.108;2023-09-18T05:25:34;0.30;;;0.30;;
51124;SDS011;37163;55.556;39.108;2023-09-18T05:28:04;0.50;;;0.47;;
51124;SDS011;37163;55.556;39.108;2023-09-18T05:30:35;0.52;;;0.40;;
51124;SDS011;37163;55.556;39.108;2023-09-18T05:33:05;0.45;;;0.20;;
51124;SDS011;37163;55.556;39.108;2023-09-18T05:35:35;0.45;;;0.20;;
51124;SDS011;37163;55.556;39.108;2023-09-18T05:38:08;0.20;;;0.20;;
51124;SDS011;37163;55.556;39.108;2023-09-18T05:40:43;0.75;;;0.20;;
51124;SDS011;37163;55.556;39.108;2023-09-18T05:43:13;0.10;;;0.10;;
51124;SDS011;37163;55.556;39.108;2023-09-18T05:45:43;0.50;;;0.10;;
51124;SDS011;37163;55.556;39.108;2023-09-18T05:48:15;0.17;;;0.17;;
51124;SDS011;37163;55.556;39.108;2023-09-18T05:50:44;0.50;;;0.35;;
51124;SDS011;37163;55.556;39.108;2023-09-18T05:53:14;0.40;;;0.22;;
51124;SDS011;37163;55.556;39.108;2023-09-18T05:55:44;0.63;;;0.32;;
51124;SDS011;37163;55.556;39.108;2023-09-18T05:58:13;0.38;;;0.32;;
51124;SDS011;37163;55.556;39.108;2023-09-18T06:00:45;0.98;;;0.43;;
51124;SDS011;37163;55.556;39.108;2023-09-18T06:03:15;0.68;;;0.40;;
51124;SDS011;37163;55.556;39.108;2023-09-18T06:05:45;0.65;;;0.40;;
51124;SDS011;37163;55.556;39.108;2023-09-18T06:08:15;0.30;;;0.30;;
51124;SDS011;37163;55.556;39.108;2023-09-18T06:10:45;0.45;;;0.30;;
51124;SDS011;37163;55.556;39.108;2023-09-18T06:13:33;0.47;;;0.40;;
51124;SDS011;37163;55.556;39.108;2023-09-18T06:16:04;0.90;;;0.50;;
51124;SDS011;37163;55.556;39.108;2023-09-18T06:18:34;0.47;;;0.47;;
51124;SDS011;37163;55.556;39.108;2023-09-18T06:21:04;0.93;;;0.52;;
51124;SDS011;37163;55.556;39.108;2023-09-18T06:23:33;1.40;;;0.50;;
51124;SDS011;37163;55.556;39.108;2023-09-18T06:26:03;0.75;;;0.47;;
51124;SDS011;37163;55.556;39.108;2023-09-18T06:28:32;0.52;;;0.43;;
51124;SDS011;37163;55.556;39.108;2023-09-18T06:31:02;0.38;;;0.30;;
51124;SDS011;37163;55.556;39.108;2023-09-18T06:33:31;0.43;;;0.20;;
51124;SDS011;37163;55.556;39.108;2023-09-18T06:36:00;0.50;;;0.38;;
51124;SDS011;37163;55.556;39.108;2023-09-18T06:38:30;0.47;;;0.22;;
51124;SDS011;37163;55.556;39.108;2023-09-18T06:40:59;0.57;;;0.30;;
51124;SDS011;37163;55.556;39.108;2023-09-18T06:43:29;0.40;;;0.40;;
51124;SDS011;37163;55.556;39.108;2023-09-18T06:45:59;0.45;;;0.30;;
51124;SDS011;37163;55.556;39.108;2023-09-18T06:48:28;0.52;;;0.40;;
51124;SDS011;37163;55.556;39.108;2023-09-18T06:50:58;0.30;;;0.30;;
51124;SDS011;37163;55.556;39.108;2023-09-18T06:53:28;0.68;;;0.38;;
51124;SDS011;37163;55.556;39.108;2023-09-18T06:55:57;0.32;;;0.30;;
51124;SDS011;37163;55.556;39.108;2023-09-18T06:58:26;0.20;;;0.20;;
51124;SDS011;37163;55.556;39.108;2023-09-18T07:00:57;0.68;;;0.40;;
51124;SDS011;37163;55.556;39.108;2023-09-18T07:03:26;0.47;;;0.30;;
51124;SDS011;37163;55.556;39.108;2023-09-18T07:05:58;0.50;;;0.20;;
51124;SDS011;37163;55.556;39.108;2023-09-18T07:08:27;0.20;;;0.20;;
51124;SDS011;37163;55.556;39.108;2023-09-18T07:10:58;0.25;;;0.25;;
51124;SDS011;37163;55.556;39.108;2023-09-18T07:13:28;0.43;;;0.20;;
51124;SDS011;37163;55.556;39.108;2023-09-18T07:15:56;0.22;;;0.22;;
51124;SDS011;37163;55.556;39.108;2023-09-18T07:18:26;0.55;;;0.40;;
51124;SDS011;37163;55.556;39.108;2023-09-18T07:20:56;0.15;;;0.10;;
51124;SDS011;37163;55.556;39.108;2023-09-18T07:23:27;0.50;;;0.35;;
51124;SDS011;37163;55.556;39.108;2023-09-18T07:25:56;0.50;;;0.43;;
51124;SDS011;37163;55.556;39.108;2023-09-18T07:28:25;0.93;;;0.70;;
51124;SDS011;37163;55.556;39.108;2023-09-18T07:31:03;0.57;;;0.45;;
51124;SDS011;37163;55.556;39.108;2023-09-18T07:33:33;1.05;;;0.60;;
51124;SDS011;37163;55.556;39.108;2023-09-18T07:36:02;0.88;;;0.40;;
51124;SDS011;37163;55.556;39.108;2023-09-18T07:38:32;0.40;;;0.40;;
51124;SDS011;37163;55.556;39.108;2023-09-18T07:41:02;0.95;;;0.70;;
51124;SDS011;37163;55.556;39.108;2023-09-18T07:43:31;0.60;;;0.60;;
51124;SDS011;37163;55.556;39.108;2023-09-18T07:46:01;0.70;;;0.40;;
51124;SDS011;37163;55.556;39.108;2023-09-18T07:48:30;1.27;;;0.60;;
51124;SDS011;37163;55.556;39.108;2023-09-18T07:51:00;0.70;;;0.47;;
51124;SDS011;37163;55.556;39.108;2023-09-18T07:53:30;0.80;;;0.40;;
51124;SDS011;37163;55.556;39.108;2023-09-18T07:55:59;0.73;;;0.40;;
51124;SDS011;37163;55.556;39.108;2023-09-18T07:58:31;0.60;;;0.50;;
51124;SDS011;37163;55.556;39.108;2023-09-18T08:01:04;0.65;;;0.52;;
51124;SDS011;37163;55.556;39.108;2023-09-18T08:03:37;0.28;;;0.28;;
51124;SDS011;37163;55.556;39.108;2023-09-18T08:06:07;1.33;;;0.70;;
51124;SDS011;37163;55.556;39.108;2023-09-18T08:08:37;2.08;;;0.80;;
51124;SDS011;37163;55.556;39.108;2023-09-18T08:11:07;1.00;;;0.77;;
51124;SDS011;37163;55.556;39.108;2023-09-18T08:13:40;1.17;;;0.55;;
51124;SDS011;37163;55.556;39.108;2023-09-18T08:16:10;0.70;;;0.40;;
51124;SDS011;37163;55.556;39.108;2023-09-18T08:18:39;0.82;;;0.52;;
51124;SDS011;37163;55.556;39.108;2023-09-18T08:21:09;0.70;;;0.60;;
51124;SDS011;37163;55.556;39.108;2023-09-18T08:23:39;1.00;;;0.60;;
51124;SDS011;37163;55.556;39.108;2023-09-18T08:26:09;0.90;;;0.70;;
51124;SDS011;37163;55.556;39.108;2023-09-18T08:28:38;1.40;;;0.68;;
51124;SDS011;37163;55.556;39.108;2023-09-18T08:31:10;1.08;;;0.60;;
51124;SDS011;37163;55.556;39.108;2023-09-18T08:33:42;2.22;;;1.10;;
51124;SDS011;37163;55.556;39.108;2023-09-18T08:36:12;2.33;;;1.10;;
51124;SDS011;37163;55.556;39.108;2023-09-18T08:38:41;1.17;;;0.57;;
51124;SDS011;37163;55.556;39.108;2023-09-18T08:41:13;1.35;;;0.85;;
51124;SDS011;37163;55.556;39.108;2023-09-18T08:43:44;1.23;;;0.88;;
51124;SDS011;37163;55.556;39.108;2023-09-18T08:46:15;1.42;;;0.75;;
51124;SDS011;37163;55.556;39.108;2023-09-18T08:48:47;1.25;;;0.90;;
51124;SDS011;37163;55.556;39.108;2023-09-18T08:51:17;0.50;;;0.50;;
51124;SDS011;37163;55.556;39.108;2023-09-18T08:53:47;1.00;;;0.60;;
51124;SDS011;37163;55.556;39.108;2023-09-18T08:56:17;1.42;;;0.90;;
51124;SDS011;37163;55.556;39.108;2023-09-18T08:58:47;1.13;;;0.70;;
51124;SDS011;37163;55.556;39.108;2023-09-18T09:01:18;1.05;;;0.65;;
51124;SDS011;37163;55.556;39.108;2023-09-18T09:03:48;1.42;;;0.80;;
51124;SDS011;37163;55.556;39.108;2023-09-18T09:06:18;0.70;;;0.40;;
51124;SDS011;37163;55.556;39.108;2023-09-18T09:08:49;0.43;;;0.43;;
51124;SDS011;37163;55.556;39.108;2023-09-18T09:11:18;0.95;;;0.40;;
51124;SDS011;37163;55.556;39.108;2023-09-18T09:13:51;0.85;;;0.40;;
51124;SDS011;37163;55.556;39.108;2023-09-18T09:16:44;0.82;;;0.70;;
51124;SDS011;37163;55.556;39.108;2023-09-18T09:19:18;0.40;;;0.40;;
51124;SDS011;37163;55.556;39.108;2023-09-18T09:22:04;0.68;;;0.40;;
51124;SDS011;37163;55.556;39.108;2023-09-18T09:24:38;1.15;;;0.52;;
51124;SDS011;37163;55.556;39.108;2023-09-18T09:27:11;0.30;;;0.25;;
51124;SDS011;37163;55.556;39.108;2023-09-18T09:29:41;0.93;;;0.40;;
51124;SDS011;37163;55.556;39.108;2023-09-18T09:32:17;0.30;;;0.30;;
51124;SDS011;37163;55.556;39.108;2023-09-18T09:34:46;1.05;;;0.60;;
51124;SDS011;37163;55.556;39.108;2023-09-18T09:37:16;2.47;;;1.27;;
51124;SDS011;37163;55.556;39.108;2023-09-18T09:39:46;2.65;;;1.40;;
51124;SDS011;37163;55.556;39.108;2023-09-18T09:42:17;2.13;;;1.27;;
51124;SDS011;37163;55.556;39.108;2023-09-18T09:45:03;1.75;;;1.20;;
51124;SDS011;37163;55.556;39.108;2023-09-18T09:47:40;2.67;;;1.45;;
51124;SDS011;37163;55.556;39.108;2023-09-18T09:50:13;1.85;;;1.35;;
51124;SDS011;37163;55.556;39.108;2023-09-18T09:55:20;2.65;;;1.30;;
51124;SDS011;37163;55.556;39.108;2023-09-18T09:57:57;2.70;;;1.48;;
51124;SDS011;37163;55.556;39.108;2023-09-18T10:00:49;1.15;;;0.80;;
51124;SDS011;37163;55.556;39.108;2023-09-18T10:03:17;1.15;;;0.80;;
51124;SDS011;37163;55.556;39.108;2023-09-18T10:05:47;1.33;;;0.75;;
51124;SDS011;37163;55.556;39.108;2023-09-18T10:08:23;1.40;;;0.95;;
51124;SDS011;37163;55.556;39.108;2023-09-18T10:11:05;1.00;;;0.80;;
51124;SDS011;37163;55.556;39.108;2023-09-18T10:16:44;1.35;;;0.90;;
51124;SDS011;37163;55.556;39.108;2023-09-18T10:19:32;1.23;;;0.75;;
51124;SDS011;37163;55.556;39.108;2023-09-18T10:22:17;1.63;;;1.00;;
51124;SDS011;37163;55.556;39.108;2023-09-18T10:24:54;1.15;;;0.80;;
51124;SDS011;37163;55.556;39.108;2023-09-18T10:27:26;0.80;;;0.50;;
51124;SDS011;37163;55.556;39.108;2023-09-18T10:29:57;0.45;;;0.45;;
51124;SDS011;37163;55.556;39.108;2023-09-18T10:32:30;1.33;;;0.70;;
51124;SDS011;37163;55.556;39.108;2023-09-18T10:35:00;1.42;;;0.85;;
51124;SDS011;37163;55.556;39.108;2023-09-18T10:37:32;1.80;;;0.82;;
51124;SDS011;37163;55.556;39.108;2023-09-18T10:40:04;2.22;;;1.02;;
51124;SDS011;37163;55.556;39.108;2023-09-18T10:42:40;1.80;;;1.10;;
51124;SDS011;37163;55.556;39.108;2023-09-18T10:45:10;2.05;;;1.05;;
51124;SDS011;37163;55.556;39.108;2023-09-18T10:47:42;0.98;;;0.50;;
51124;SDS011;37163;55.556;39.108;2023-09-18T10:50:13;1.33;;;0.80;;
51124;SDS011;37163;55.556;39.108;2023-09-18T10:52:52;0.43;;;0.40;;
51124;SDS011;37163;55.556;39.108;2023-09-18T10:55:25;1.08;;;0.70;;
51124;SDS011;37163;55.556;39.108;2023-09-18T10:57:55;0.77;;;0.60;;
51124;SDS011;37163;55.556;39.108;2023-09-18T11:00:25;0.52;;;0.50;;
51124;SDS011;37163;55.556;39.108;2023-09-18T11:03:09;0.43;;;0.40;;
51124;SDS011;37163;55.556;39.108;2023-09-18T11:05:46;0.98;;;0.70;;
51124;SDS011;37163;55.556;39.108;2023-09-18T11:11:02;0.90;;;0.60;;
51124;SDS011;37163;55.556;39.108;2023-09-18T11:16:19;0.52;;;0.52;;
51124;SDS011;37163;55.556;39.108;2023-09-18T11:19:05;0.52;;;0.47;;
51124;SDS011;37163;55.556;39.108;2023-09-18T11:21:37;1.30;;;0.90;;
51124;SDS011;37163;55.556;39.108;2023-09-18T11:24:07;0.65;;;0.47;;
51124;SDS011;37163;55.556;39.108;2023-09-18T11:26:45;0.70;;;0.63;;
51124;SDS011;37163;55.556;39.108;2023-09-18T11:29:24;1.00;;;0.47;;
51124;SDS011;37163;55.556;39.108;2023-09-18T11:31:57;0.70;;;0.43;;
51124;SDS011;37163;55.556;39.108;2023-09-18T11:34:29;0.50;;;0.43;;
51124;SDS011;37163;55.556;39.108;2023-09-18T11:37:01;0.65;;;0.30;;
51124;SDS011;37163;55.556;39.108;2023-09-18T11:39:47;0.88;;;0.28;;
51124;SDS011;37163;55.556;39.108;2023-09-18T11:42:19;0.40;;;0.40;;
51124;SDS011;37163;55.556;39.108;2023-09-18T11:44:52;0.43;;;0.38;;
51124;SDS011;37163;55.556;39.108;2023-09-18T11:47:23;0.65;;;0.50;;
51124;SDS011;37163;55.556;39.108;2023-09-18T11:49:56;1.30;;;0.70;;
51124;SDS011;37163;55.556;39.108;2023-09-18T11:52:27;0.98;;;0.85;;
51124;SDS011;37163;55.556;39.108;2023-09-18T11:54:58;0.70;;;0.60;;
51124;SDS011;37163;55.556;39.108;2023-09-18T11:57:29;0.63;;;0.40;;
51124;SDS011;37163;55.556;39.108;2023-09-18T12:00:04;1.02;;;0.50;;
51124;SDS011;37163;55.556;39.108;2023-09-18T12:02:48;0.80;;;0.40;;
51124;SDS011;37163;55.556;39.108;2023-09-18T12:05:18;0.30;;;0.20;;
51124;SDS011;37163;55.556;39.108;2023-09-18T12:07:51;0.30;;;0.30;;
51124;SDS011;37163;55.556;39.108;2023-09-18T12:10:21;0.20;;;0.20;;
51124;SDS011;37163;55.556;39.108;2023-09-18T12:12:50;0.10;;;0.10;;
51124;SDS011;37163;55.556;39.108;2023-09-18T12:15:20;0.10;;;0.10;;
51124;SDS011;37163;55.556;39.108;2023-09-18T12:17:53;0.15;;;0.13;;
51124;SDS011;37163;55.556;39.108;2023-09-18T12:20:25;0.60;;;0.20;;
51124;SDS011;37163;55.556;39.108;2023-09-18T12:22:54;0.55;;;0.40;;
51124;SDS011;37163;55.556;39.108;2023-09-18T12:25:23;1.33;;;0.60;;
51124;SDS011;37163;55.556;39.108;2023-09-18T12:27:53;1.90;;;0.85;;
51124;SDS011;37163;55.556;39.108;2023-09-18T12:30:25;1.08;;;0.80;;
51124;SDS011;37163;55.556;39.108;2023-09-18T12:32:57;1.65;;;0.80;;
51124;SDS011;37163;55.556;39.108;2023-09-18T12:35:27;1.65;;;0.85;;
51124;SDS011;37163;55.556;39.108;2023-09-18T12:37:58;2.00;;;0.90;;
51124;SDS011;37163;55.556;39.108;2023-09-18T12:40:30;1.23;;;0.70;;
51124;SDS011;37163;55.556;39.108;2023-09-18T12:43:00;1.30;;;0.80;;
51124;SDS011;37163;55.556;39.108;2023-09-18T12:45:32;2.03;;;0.80;;
51124;SDS011;37163;55.556;39.108;2023-09-18T12:50:41;1.73;;;0.93;;
51124;SDS011;37163;55.556;39.108;2023-09-18T12:53:11;2.92;;;1.45;;
51124;SDS011;37163;55.556;39.108;2023-09-18T12:55:42;1.95;;;1.08;;
51124;SDS011;37163;55.556;39.108;2023-09-18T12:58:12;2.65;;;1.63;;
51124;SDS011;37163;55.556;39.108;2023-09-18T13:00:50;1.60;;;0.90;;
51124;SDS011;37163;55.556;39.108;2023-09-18T13:03:20;2.03;;;1.17;;
51124;SDS011;37163;55.556;39.108;2023-09-18T13:05:51;2.60;;;1.23;;
51124;SDS011;37163;55.556;39.108;2023-09-18T13:08:32;5.13;;;1.60;;
51124;SDS011;37163;55.556;39.108;2023-09-18T13:11:01;3.63;;;1.50;;
51124;SDS011;37163;55.556;39.108;2023-09-18T13:13:32;4.15;;;1.42;;
51124;SDS011;37163;55.556;39.108;2023-09-18T13:16:04;1.92;;;1.20;;
51124;SDS011;37163;55.556;39.108;2023-09-18T13:18:37;1.75;;;0.88;;
51124;SDS011;37163;55.556;39.108;2023-09-18T13:21:10;1.33;;;0.70;;
51124;SDS011;37163;55.556;39.108;2023-09-18T13:23:40;1.35;;;1.00;;
51124;SDS011;37163;55.556;39.108;2023-09-18T13:26:08;1.48;;;0.80;;
51124;SDS011;37163;55.556;39.108;2023-09-18T13:28:37;1.80;;;1.05;;
51124;SDS011;37163;55.556;39.108;2023-09-18T13:31:27;2.08;;;0.90;;
51124;SDS011;37163;55.556;39.108;2023-09-18T13:33:58;2.50;;;1.30;;
51124;SDS011;37163;55.556;39.108;2023-09-18T13:36:31;3.00;;;1.35;;
51124;SDS011;37163;55.556;39.108;2023-09-18T13:39:03;3.15;;;1.65;;
51124;SDS011;37163;55.556;39.108;2023-09-18T13:41:32;4.82;;;2.10;;
51124;SDS011;37163;55.556;39.108;2023-09-18T13:44:02;3.08;;;1.30;;
51124;SDS011;37163;55.556;39.108;2023-09-18T13:46:32;2.20;;;1.35;;
51124;SDS011;37163;55.556;39.108;2023-09-18T13:49:04;2.35;;;1.13;;
51124;SDS011;37163;55.556;39.108;2023-09-18T13:51:33;2.42;;;0.98;;
51124;SDS011;37163;55.556;39.108;2023-09-18T13:54:04;3.20;;;1.02;;
51124;SDS011;37163;55.556;39.108;2023-09-18T13:56:34;1.23;;;0.70;;
51124;SDS011;37163;55.556;39.108;2023-09-18T13:59:04;2.10;;;0.73;;
51124;SDS011;37163;55.556;39.108;2023-09-18T14:01:35;1.05;;;0.68;;
51124;SDS011;37163;55.556;39.108;2023-09-18T14:04:04;2.30;;;0.93;;
51124;SDS011;37163;55.556;39.108;2023-09-18T14:06:34;1.55;;;0.90;;
51124;SDS011;37163;55.556;39.108;2023-09-18T14:09:04;2.20;;;1.02;;
51124;SDS011;37163;55.556;39.108;2023-09-18T14:11:36;0.88;;;0.52;;
51124;SDS011;37163;55.556;39.108;2023-09-18T14:14:04;1.73;;;0.77;;
51124;SDS011;37163;55.556;39.108;2023-09-18T14:16:35;0.95;;;0.68;;
51124;SDS011;37163;55.556;39.108;2023-09-18T14:19:04;1.15;;;0.60;;
51124;SDS011;37163;55.556;39.108;2023-09-18T14:21:37;0.50;;;0.50;;
51124;SDS011;37163;55.556;39.108;2023-09-18T14:24:06;2.67;;;0.90;;
51124;SDS011;37163;55.556;39.108;2023-09-18T14:26:37;0.90;;;0.57;;
51124;SDS011;37163;55.556;39.108;2023-09-18T14:29:08;1.60;;;0.98;;
51124;SDS011;37163;55.556;39.108;2023-09-18T14:31:47;1.17;;;0.52;;
51124;SDS011;37163;55.556;39.108;2023-09-18T14:34:37;2.03;;;0.98;;
51124;SDS011;37163;55.556;39.108;2023-09-18T14:37:07;1.60;;;0.70;;
51124;SDS011;37163;55.556;39.108;2023-09-18T14:39:40;2.13;;;1.20;;
51124;SDS011;37163;55.556;39.108;2023-09-18T14:42:08;1.83;;;0.93;;
51124;SDS011;37163;55.556;39.108;2023-09-18T14:44:38;0.98;;;0.60;;
51124;SDS011;37163;55.556;39.108;2023-09-18T14:47:11;0.73;;;0.50;;
51124;SDS011;37163;55.556;39.108;2023-09-18T14:49:43;0.35;;;0.17;;
51124;SDS011;37163;55.556;39.108;2023-09-18T14:52:14;0.22;;;0.22;;
51124;SDS011;37163;55.556;39.108;2023-09-18T14:54:49;0.22;;;0.20;;
51124;SDS011;37163;55.556;39.108;2023-09-18T14:57:21;0.20;;;0.20;;
51124;SDS011;37163;55.556;39.108;2023-09-18T14:59:52;0.55;;;0.10;;
51124;SDS011;37163;55.556;39.108;2023-09-18T15:02:25;0.10;;;0.00;;
51124;SDS011;37163;55.556;39.108;2023-09-18T15:04:57;0.00;;;0.00;;
51124;SDS011;37163;55.556;39.108;2023-09-18T15:07:32;0.10;;;0.00;;
51124;SDS011;37163;55.556;39.108;2023-09-18T15:10:03;0.10;;;0.10;;
51124;SDS011;37163;55.556;39.108;2023-09-18T15:12:36;0.00;;;0.00;;
51124;SDS011;37163;55.556;39.108;2023-09-18T15:15:09;0.10;;;0.10;;
51124;SDS011;37163;55.556;39.108;2023-09-18T15:17:39;0.00;;;0.00;;